Time;durP1;ratioP1;P1;durP2;ratioP2;P2;SDS_P1;SDS_P2;PMS_P1;PMS_P2;Temp;Humidity;BMP_temperature;BMP_pressure;BME280_temperature;BME280_humidity;BME280_pressure;Samples;Min_cycle;Max_cycle;Signal;HPM_P1;HPM_P2
2022/11/03 00:01:00;;;;;;;7.95;2.70;;;;;;;;;;4999915;28;20054;-64
2022/11/03 00:03:26;;;;;;;7.93;2.60;;;;;;;;;;5004575;28;20463;-65
2022/11/03 00:06:04;;;;;;;9.45;2.78;;;;;;;;;;5005161;28;20841;-67
2022/11/03 00:08:40;;;;;;;9.60;2.95;;;;;;;;;;5004042;28;20046;-67
2022/11/03 00:11:09;;;;;;;9.55;2.78;;;;;;;;;;5001095;28;20042;-63
2022/11/03 00:13:36;;;;;;;8.05;2.60;;;;;;;;;;5007495;28;20071;-64
2022/11/03 00:16:02;;;;;;;16.33;3.25;;;;;;;;;;5002948;28;20054;-65
2022/11/03 00:18:27;;;;;;;8.45;2.63;;;;;;;;;;5008712;28;20369;-66
2022/11/03 00:21:00;;;;;;;11.10;2.88;;;;;;;;;;5007856;28;20041;-64
2022/11/03 00:23:27;;;;;;;11.68;3.15;;;;;;;;;;4999491;28;20053;-64
2022/11/03 00:25:53;;;;;;;9.10;2.65;;;;;;;;;;4998021;28;20132;-64
2022/11/03 00:28:18;;;;;;;10.30;3.05;;;;;;;;;;4997926;28;20046;-63
2022/11/03 00:30:43;;;;;;;8.60;3.20;;;;;;;;;;4998064;28;20062;-65
2022/11/03 00:33:09;;;;;;;11.00;2.80;;;;;;;;;;4999187;28;20192;-65
2022/11/03 00:35:34;;;;;;;10.77;2.70;;;;;;;;;;4995646;28;20049;-63
2022/11/03 00:38:00;;;;;;;9.50;3.03;;;;;;;;;;4993140;28;20061;-63
2022/11/03 00:40:25;;;;;;;9.55;2.88;;;;;;;;;;4994816;28;20149;-65
2022/11/03 00:42:51;;;;;;;14.85;3.20;;;;;;;;;;4999890;28;20080;-65
2022/11/03 00:45:16;;;;;;;14.05;2.80;;;;;;;;;;4996852;28;20038;-65
2022/11/03 00:50:27;;;;;;;9.10;2.58;;;;;;;;;;4983786;28;20097;-65
2022/11/03 00:52:52;;;;;;;12.15;3.05;;;;;;;;;;4994536;28;20129;-66
2022/11/03 00:55:18;;;;;;;15.13;2.90;;;;;;;;;;5005903;28;20169;-65
2022/11/03 00:57:44;;;;;;;15.20;2.72;;;;;;;;;;4995851;28;20096;-65
2022/11/03 01:00:10;;;;;;;6.63;2.42;;;;;;;;;;5002618;28;20065;-65
2022/11/03 01:02:36;;;;;;;8.77;2.40;;;;;;;;;;4999674;28;20053;-64
2022/11/03 01:07:45;;;;;;;10.10;2.83;;;;;;;;;;5005294;28;20073;-64
2022/11/03 01:10:11;;;;;;;8.75;2.40;;;;;;;;;;5003457;28;20053;-64
2022/11/03 01:12:36;;;;;;;7.30;2.47;;;;;;;;;;5003925;28;20038;-64
2022/11/03 01:15:01;;;;;;;6.85;2.70;;;;;;;;;;5001414;28;20030;-64
2022/11/03 01:17:28;;;;;;;5.78;2.08;;;;;;;;;;4999025;28;20056;-64
2022/11/03 01:19:54;;;;;;;8.40;2.22;;;;;;;;;;5000966;28;20427;-64
2022/11/03 01:22:21;;;;;;;11.35;2.47;;;;;;;;;;5005026;28;20151;-64
2022/11/03 01:24:47;;;;;;;10.05;2.17;;;;;;;;;;4997405;28;20054;-64
2022/11/03 01:27:15;;;;;;;8.10;2.05;;;;;;;;;;4995355;28;20045;-64
2022/11/03 01:29:42;;;;;;;7.78;2.75;;;;;;;;;;5000707;28;20042;-64
2022/11/03 01:32:08;;;;;;;9.25;2.30;;;;;;;;;;5016826;28;20394;-64
2022/11/03 01:34:34;;;;;;;10.60;2.38;;;;;;;;;;5001465;28;20072;-64
2022/11/03 01:36:59;;;;;;;8.73;2.08;;;;;;;;;;4998837;28;20077;-63
2022/11/03 01:39:25;;;;;;;12.63;2.60;;;;;;;;;;5001611;28;20060;-64
2022/11/03 01:41:51;;;;;;;10.45;3.03;;;;;;;;;;4997095;28;20026;-67
2022/11/03 01:44:17;;;;;;;12.50;2.70;;;;;;;;;;5000240;28;20132;-67
2022/11/03 01:46:53;;;;;;;6.13;1.90;;;;;;;;;;5001160;28;20058;-56
2022/11/03 01:49:26;;;;;;;8.02;2.05;;;;;;;;;;5001428;28;20573;-60
2022/11/03 01:51:55;;;;;;;10.32;2.15;;;;;;;;;;5004484;28;20365;-57
2022/11/03 01:54:25;;;;;;;5.93;2.20;;;;;;;;;;5002692;28;20088;-57
2022/11/03 01:56:51;;;;;;;8.10;2.10;;;;;;;;;;5000071;28;20042;-57
2022/11/03 01:59:19;;;;;;;6.45;2.08;;;;;;;;;;4997248;28;20064;-59
2022/11/03 02:01:46;;;;;;;11.38;3.00;;;;;;;;;;5002177;28;20145;-57
2022/11/03 02:04:22;;;;;;;9.00;2.38;;;;;;;;;;5000343;28;20038;-58
2022/11/03 02:06:55;;;;;;;10.27;2.60;;;;;;;;;;4992885;28;20056;-57
2022/11/03 02:09:20;;;;;;;11.15;2.92;;;;;;;;;;4993390;28;20049;-58
2022/11/03 02:14:30;;;;;;;9.02;2.10;;;;;;;;;;4998194;28;20084;-58
2022/11/03 02:17:01;;;;;;;9.90;2.30;;;;;;;;;;4997465;28;20141;-57
2022/11/03 02:19:31;;;;;;;5.50;2.10;;;;;;;;;;4998363;28;20041;-58
2022/11/03 02:22:07;;;;;;;10.38;2.40;;;;;;;;;;4992880;28;20080;-58
2022/11/03 02:24:48;;;;;;;7.78;2.20;;;;;;;;;;4996958;28;20037;-56
2022/11/03 02:27:14;;;;;;;6.18;2.20;;;;;;;;;;4992061;28;20037;-58
2022/11/03 02:29:39;;;;;;;8.60;2.28;;;;;;;;;;4993690;28;20058;-58
2022/11/03 02:32:29;;;;;;;9.07;2.40;;;;;;;;;;4993946;28;20128;-58
2022/11/03 02:35:04;;;;;;;12.38;2.70;;;;;;;;;;4998893;28;20054;-58
2022/11/03 02:37:34;;;;;;;12.00;2.40;;;;;;;;;;4992928;28;20069;-56
2022/11/03 02:40:08;;;;;;;9.45;2.47;;;;;;;;;;4992278;28;20129;-58
2022/11/03 02:42:36;;;;;;;9.93;2.40;;;;;;;;;;4993340;28;20050;-58
2022/11/03 02:45:05;;;;;;;9.10;2.28;;;;;;;;;;4992359;28;20092;-54
2022/11/03 02:47:32;;;;;;;7.78;2.17;;;;;;;;;;4998509;28;20058;-58
2022/11/03 02:49:57;;;;;;;8.90;2.65;;;;;;;;;;4997159;28;20076;-58
2022/11/03 02:52:39;;;;;;;9.43;2.40;;;;;;;;;;4997810;28;20393;-58
2022/11/03 02:55:21;;;;;;;7.32;2.10;;;;;;;;;;4999162;28;20062;-59
2022/11/03 02:58:05;;;;;;;14.30;2.72;;;;;;;;;;4997711;28;20068;-58
2022/11/03 03:00:49;;;;;;;14.00;2.60;;;;;;;;;;5001227;28;20037;-58
2022/11/03 03:03:34;;;;;;;;;;;;;;;;;;4996652;28;20030;-58
2022/11/03 03:06:05;;;;;;;12.60;2.90;;;;;;;;;;5000470;28;19995;-58
2022/11/03 03:08:32;;;;;;;9.75;2.40;;;;;;;;;;4991578;28;20440;-58
2022/11/03 03:11:01;;;;;;;8.50;2.17;;;;;;;;;;4995000;28;20058;-57
2022/11/03 03:13:27;;;;;;;8.43;2.13;;;;;;;;;;5001354;28;20405;-59
2022/11/03 03:16:14;;;;;;;8.43;2.42;;;;;;;;;;4991610;28;20042;-56
2022/11/03 03:18:50;;;;;;;9.02;2.30;;;;;;;;;;4996695;28;20034;-63
2022/11/03 03:21:24;;;;;;;7.07;2.20;;;;;;;;;;4999114;28;20037;-57
2022/11/03 03:23:57;;;;;;;15.75;2.90;;;;;;;;;;4995841;28;20103;-57
2022/11/03 03:26:31;;;;;;;10.57;3.08;;;;;;;;;;4998081;28;20042;-59
2022/11/03 03:29:13;;;;;;;9.32;2.35;;;;;;;;;;4999253;28;20050;-58
2022/11/03 03:31:41;;;;;;;7.13;2.97;;;;;;;;;;4994021;28;20056;-59
2022/11/03 03:34:08;;;;;;;12.85;2.80;;;;;;;;;;4995412;28;20058;-58
2022/11/03 03:36:37;;;;;;;8.27;2.60;;;;;;;;;;5000044;28;20129;-59
2022/11/03 03:39:05;;;;;;;11.73;2.85;;;;;;;;;;4997393;28;20042;-58
2022/11/03 03:41:32;;;;;;;10.20;2.40;;;;;;;;;;4996176;28;20061;-59
2022/11/03 03:44:04;;;;;;;8.15;2.70;;;;;;;;;;4996669;28;20068;-57
2022/11/03 03:46:35;;;;;;;8.52;2.45;;;;;;;;;;4994069;28;20072;-57
2022/11/03 03:49:01;;;;;;;6.93;2.22;;;;;;;;;;4995430;28;20081;-59
2022/11/03 03:51:28;;;;;;;6.30;2.53;;;;;;;;;;4996119;28;20026;-59
2022/11/03 03:53:54;;;;;;;8.13;2.35;;;;;;;;;;5000354;28;20039;-59
2022/11/03 03:56:47;;;;;;;9.07;2.75;;;;;;;;;;4997618;28;20069;-58
2022/11/03 03:59:12;;;;;;;11.68;2.53;;;;;;;;;;4988759;28;20046;-59
2022/11/03 04:01:38;;;;;;;6.13;2.60;;;;;;;;;;4989158;28;20065;-60
2022/11/03 04:04:04;;;;;;;13.48;2.60;;;;;;;;;;4987664;28;20065;-59
2022/11/03 04:06:29;;;;;;;13.55;2.60;;;;;;;;;;4992892;28;20121;-62
2022/11/03 04:08:54;;;;;;;8.77;2.20;;;;;;;;;;4995828;28;20049;-58
2022/11/03 04:22:17;;;;;;;12.30;2.60;;;;;;;;;;4996667;28;20154;-57
2022/11/03 04:24:50;;;;;;;5.07;2.38;;;;;;;;;;4991340;28;20038;-55
2022/11/03 04:27:25;;;;;;;;;;;;;;;;;;4999862;28;20511;-58
2022/11/03 04:29:51;;;;;;;7.57;2.50;;;;;;;;;;4998545;28;19925;-58
2022/11/03 04:32:17;;;;;;;6.40;2.58;;;;;;;;;;4997846;28;20925;-58
2022/11/03 04:34:47;;;;;;;10.38;2.58;;;;;;;;;;4998103;28;20046;-57
2022/11/03 04:37:13;;;;;;;12.00;2.88;;;;;;;;;;4995574;28;20116;-58
2022/11/03 04:39:39;;;;;;;7.20;2.22;;;;;;;;;;4996556;28;20523;-58
2022/11/03 04:42:18;;;;;;;10.88;2.60;;;;;;;;;;4999491;28;20026;-59
2022/11/03 04:44:45;;;;;;;10.43;3.17;;;;;;;;;;5001368;28;20081;-58
2022/11/03 04:47:12;;;;;;;10.43;2.80;;;;;;;;;;5004146;28;20069;-59
2022/11/03 04:49:38;;;;;;;10.10;2.78;;;;;;;;;;5003787;28;20526;-59
2022/11/03 04:52:13;;;;;;;9.23;2.80;;;;;;;;;;4998443;28;20145;-58
2022/11/03 04:54:38;;;;;;;8.35;2.90;;;;;;;;;;4994558;28;20084;-59
2022/11/03 04:57:10;;;;;;;11.05;2.83;;;;;;;;;;5001144;28;20420;-58
2022/11/03 04:59:35;;;;;;;10.63;2.97;;;;;;;;;;5004060;28;20070;-59
2022/11/03 05:02:02;;;;;;;9.93;2.72;;;;;;;;;;4997166;28;20145;-58
2022/11/03 05:04:28;;;;;;;9.07;2.58;;;;;;;;;;5009230;28;20116;-58
2022/11/03 05:06:53;;;;;;;11.02;3.00;;;;;;;;;;5000687;28;20132;-63
2022/11/03 05:09:31;;;;;;;8.45;2.80;;;;;;;;;;4994352;28;20468;-61
2022/11/03 05:11:56;;;;;;;12.07;3.20;;;;;;;;;;5004070;28;20060;-64
2022/11/03 05:14:25;;;;;;;10.32;2.85;;;;;;;;;;5000785;28;20045;-67
2022/11/03 05:16:54;;;;;;;13.80;3.53;;;;;;;;;;4996041;28;20070;-64
2022/11/03 05:19:23;;;;;;;12.77;2.97;;;;;;;;;;4998404;28;20073;-62
2022/11/03 05:21:49;;;;;;;7.85;2.80;;;;;;;;;;4996467;28;20054;-62
2022/11/03 05:24:17;;;;;;;9.13;3.42;;;;;;;;;;4998379;28;20181;-62
2022/11/03 05:26:44;;;;;;;8.30;3.45;;;;;;;;;;4997717;28;20033;-61
2022/11/03 05:29:21;;;;;;;8.95;3.63;;;;;;;;;;5000404;28;20137;-68
2022/11/03 05:31:47;;;;;;;15.05;2.95;;;;;;;;;;4999274;28;20065;-62
2022/11/03 05:34:44;;;;;;;12.68;3.03;;;;;;;;;;4997515;28;20087;-63
2022/11/03 05:37:23;;;;;;;12.00;2.88;;;;;;;;;;4997521;28;20053;-62
2022/11/03 05:39:49;;;;;;;10.57;2.60;;;;;;;;;;5000776;28;20119;-61
2022/11/03 05:42:21;;;;;;;9.75;3.17;;;;;;;;;;4997850;28;20046;-61
2022/11/03 05:44:47;;;;;;;9.20;3.13;;;;;;;;;;4999788;28;20409;-65
2022/11/03 05:47:19;;;;;;;11.70;3.17;;;;;;;;;;4996752;28;20583;-62
2022/11/03 05:49:46;;;;;;;7.57;2.60;;;;;;;;;;4994209;28;20213;-61
2022/11/03 05:52:24;;;;;;;9.57;2.92;;;;;;;;;;5002180;28;20092;-61
2022/11/03 05:54:51;;;;;;;11.02;3.40;;;;;;;;;;5001424;28;20465;-62
2022/11/03 05:57:17;;;;;;;13.93;3.47;;;;;;;;;;4996170;28;20034;-61
2022/11/03 05:59:46;;;;;;;12.35;3.75;;;;;;;;;;4998505;28;20133;-64
2022/11/03 06:02:44;;;;;;;12.75;3.33;;;;;;;;;;4995830;28;20137;-62
2022/11/03 06:05:19;;;;;;;9.77;3.35;;;;;;;;;;4996018;28;20098;-61
2022/11/03 06:07:46;;;;;;;14.93;3.78;;;;;;;;;;4997586;28;20061;-61
2022/11/03 06:10:17;;;;;;;9.88;3.40;;;;;;;;;;4996548;28;20523;-61
2022/11/03 06:12:43;;;;;;;14.18;3.33;;;;;;;;;;4997712;28;20034;-61
2022/11/03 06:15:25;;;;;;;9.20;3.08;;;;;;;;;;4997600;28;20089;-61
2022/11/03 06:17:52;;;;;;;9.25;3.78;;;;;;;;;;5001426;28;20492;-61
2022/11/03 06:20:20;;;;;;;10.98;3.25;;;;;;;;;;4998509;28;20111;-61
2022/11/03 06:22:47;;;;;;;7.22;3.17;;;;;;;;;;4999615;28;20671;-62
2022/11/03 06:25:15;;;;;;;11.13;3.53;;;;;;;;;;4998919;28;20046;-61
2022/11/03 06:27:41;;;;;;;9.18;3.35;;;;;;;;;;4993891;28;20045;-61
2022/11/03 06:30:18;;;;;;;7.90;3.00;;;;;;;;;;4997370;28;20918;-61
2022/11/03 06:32:44;;;;;;;12.57;4.22;;;;;;;;;;5002497;28;20054;-61
2022/11/03 06:35:12;;;;;;;15.45;6.30;;;;;;;;;;4999730;28;20501;-60
2022/11/03 06:37:37;;;;;;;13.35;5.07;;;;;;;;;;4993556;28;20060;-61
2022/11/03 06:40:08;;;;;;;11.13;3.85;;;;;;;;;;4997738;28;20058;-62
2022/11/03 06:42:34;;;;;;;10.43;4.15;;;;;;;;;;4993768;28;20049;-60
2022/11/03 06:45:08;;;;;;;13.30;4.15;;;;;;;;;;5002289;28;20037;-60
2022/11/03 06:47:34;;;;;;;14.18;5.68;;;;;;;;;;4994150;28;20107;-60
2022/11/03 06:50:00;;;;;;;10.00;3.80;;;;;;;;;;5000249;28;20041;-60
2022/11/03 06:52:36;;;;;;;15.30;4.18;;;;;;;;;;5000991;28;20576;-61
2022/11/03 06:55:10;;;;;;;13.75;4.63;;;;;;;;;;5000331;28;20060;-60
2022/11/03 06:57:42;;;;;;;12.23;4.15;;;;;;;;;;5001972;28;20042;-61
2022/11/03 07:00:28;;;;;;;11.98;4.20;;;;;;;;;;4991515;28;20101;-61
2022/11/03 07:03:02;;;;;;;17.02;5.15;;;;;;;;;;5002203;28;20068;-60
2022/11/03 07:05:29;;;;;;;;;;;;;;;;;;4997122;28;20065;-62
2022/11/03 07:07:57;;;;;;;14.73;4.68;;;;;;;;;;4993151;28;19925;-61
2022/11/03 07:10:30;;;;;;;9.63;4.50;;;;;;;;;;4995972;28;20045;-64
2022/11/03 07:12:58;;;;;;;11.23;4.82;;;;;;;;;;4994425;28;20485;-61
2022/11/03 07:15:29;;;;;;;18.25;5.53;;;;;;;;;;4998068;28;20072;-61
2022/11/03 07:17:55;;;;;;;25.52;5.68;;;;;;;;;;4996414;28;20064;-61
2022/11/03 07:20:21;;;;;;;35.00;7.22;;;;;;;;;;4999384;28;20132;-62
2022/11/03 07:22:47;;;;;;;16.92;5.38;;;;;;;;;;4996971;28;20073;-62
2022/11/03 07:25:16;;;;;;;12.85;5.22;;;;;;;;;;4993187;28;20405;-61
2022/11/03 07:27:42;;;;;;;11.30;4.35;;;;;;;;;;4990984;28;20564;-57
2022/11/03 07:30:18;;;;;;;11.23;4.63;;;;;;;;;;4995122;28;20049;-57
2022/11/03 07:32:44;;;;;;;11.88;4.90;;;;;;;;;;4991990;28;21920;-55
2022/11/03 07:35:16;;;;;;;13.20;4.70;;;;;;;;;;4990471;28;20054;-57
2022/11/03 07:37:42;;;;;;;17.00;5.35;;;;;;;;;;4992560;28;20058;-57
2022/11/03 07:40:14;;;;;;;22.27;6.85;;;;;;;;;;5001562;28;20058;-57
2022/11/03 07:42:40;;;;;;;14.30;5.53;;;;;;;;;;4986499;28;20038;-57
2022/11/03 07:45:58;;;;;;;15.73;5.95;;;;;;;;;;4998135;28;20069;-56
2022/11/03 07:48:27;;;;;;;18.58;5.32;;;;;;;;;;4990620;28;20052;-57
2022/11/03 07:50:55;;;;;;;11.70;4.80;;;;;;;;;;5000291;28;20505;-57
2022/11/03 07:53:31;;;;;;;12.25;4.10;;;;;;;;;;4995316;28;20393;-57
2022/11/03 07:55:57;;;;;;;12.27;4.38;;;;;;;;;;4998086;28;20046;-64
2022/11/03 07:58:31;;;;;;;24.27;5.43;;;;;;;;;;4998161;28;20056;-63
2022/11/03 08:00:56;;;;;;;15.77;5.15;;;;;;;;;;4992310;28;20108;-63
2022/11/03 08:03:46;;;;;;;19.85;4.88;;;;;;;;;;4995229;28;20132;-62
2022/11/03 08:06:11;;;;;;;19.90;5.20;;;;;;;;;;4988996;28;20053;-62
2022/11/03 08:08:37;;;;;;;31.48;6.47;;;;;;;;;;4999328;28;20053;-61
2022/11/03 08:11:03;;;;;;;24.70;6.32;;;;;;;;;;4999278;28;20175;-61
2022/11/03 08:13:28;;;;;;;26.65;5.97;;;;;;;;;;5001946;28;20140;-62
2022/11/03 08:15:54;;;;;;;20.60;5.78;;;;;;;;;;5000070;28;20050;-60
2022/11/03 08:18:19;;;;;;;13.05;4.20;;;;;;;;;;4991791;28;20213;-60
2022/11/03 08:20:44;;;;;;;44.78;8.98;;;;;;;;;;4994000;28;20050;-60
2022/11/03 08:23:10;;;;;;;61.20;10.88;;;;;;;;;;4995247;28;20670;-60
2022/11/03 08:25:36;;;;;;;30.00;7.47;;;;;;;;;;5000343;28;20042;-56
2022/11/03 08:28:02;;;;;;;20.40;6.20;;;;;;;;;;5002006;28;20061;-54
2022/11/03 08:30:28;;;;;;;21.10;4.90;;;;;;;;;;4998451;28;20042;-60
2022/11/03 08:32:54;;;;;;;24.30;6.18;;;;;;;;;;4998561;28;21604;-60
2022/11/03 08:35:19;;;;;;;25.05;6.03;;;;;;;;;;4996752;28;20065;-60
2022/11/03 08:37:45;;;;;;;26.60;5.63;;;;;;;;;;4994266;28;20054;-60
2022/11/03 08:40:10;;;;;;;21.65;5.50;;;;;;;;;;5005295;28;20527;-61
2022/11/03 08:42:36;;;;;;;19.13;6.10;;;;;;;;;;5006649;28;20038;-60
2022/11/03 08:45:01;;;;;;;18.92;5.65;;;;;;;;;;5004880;28;20049;-60
2022/11/03 08:47:26;;;;;;;16.52;4.75;;;;;;;;;;5009037;28;20050;-60
2022/11/03 08:49:52;;;;;;;22.55;5.55;;;;;;;;;;5007499;28;20042;-61
2022/11/03 08:52:18;;;;;;;20.50;5.22;;;;;;;;;;5000377;28;20133;-62
2022/11/03 08:54:44;;;;;;;15.20;5.38;;;;;;;;;;5005456;28;22006;-62
2022/11/03 08:57:09;;;;;;;13.10;5.13;;;;;;;;;;5005213;28;20041;-57
2022/11/03 08:59:34;;;;;;;17.20;4.90;;;;;;;;;;5006119;28;20128;-57
2022/11/03 09:02:00;;;;;;;13.35;5.05;;;;;;;;;;5003884;28;20057;-61
2022/11/03 09:04:25;;;;;;;17.13;5.00;;;;;;;;;;5004980;28;20481;-62
2022/11/03 09:06:50;;;;;;;13.20;5.13;;;;;;;;;;5003950;28;20054;-56
2022/11/03 09:09:16;;;;;;;22.75;5.57;;;;;;;;;;5003980;28;20033;-63
2022/11/03 09:11:41;;;;;;;21.95;6.00;;;;;;;;;;5003474;28;20060;-57
2022/11/03 09:14:07;;;;;;;16.08;5.80;;;;;;;;;;5002946;28;20053;-55
2022/11/03 09:16:32;;;;;;;16.88;5.55;;;;;;;;;;5008065;28;20137;-57
2022/11/03 09:18:57;;;;;;;25.98;5.70;;;;;;;;;;5011491;28;20187;-57
2022/11/03 09:21:23;;;;;;;19.42;5.20;;;;;;;;;;5004527;28;20080;-62
2022/11/03 09:23:48;;;;;;;27.75;6.90;;;;;;;;;;5006987;28;20056;-63
2022/11/03 09:26:13;;;;;;;15.68;5.15;;;;;;;;;;5008384;28;20049;-60
2022/11/03 09:28:39;;;;;;;15.57;5.20;;;;;;;;;;5005944;28;20177;-62
2022/11/03 09:31:04;;;;;;;15.73;4.90;;;;;;;;;;5005031;28;20074;-60
2022/11/03 09:33:30;;;;;;;17.15;5.63;;;;;;;;;;5005984;28;20034;-61
2022/11/03 09:35:55;;;;;;;14.32;4.68;;;;;;;;;;5011839;28;20512;-62
2022/11/03 09:38:20;;;;;;;13.38;4.68;;;;;;;;;;5007279;28;20050;-62
2022/11/03 09:40:46;;;;;;;20.45;5.40;;;;;;;;;;5006650;28;20378;-60
2022/11/03 09:43:11;;;;;;;16.17;5.13;;;;;;;;;;5004691;28;20045;-60
2022/11/03 09:45:38;;;;;;;15.13;4.97;;;;;;;;;;5005200;28;20038;-66
2022/11/03 09:48:04;;;;;;;22.58;5.78;;;;;;;;;;5008776;28;20495;-68
2022/11/03 09:50:30;;;;;;;16.33;5.07;;;;;;;;;;5007928;28;20046;-66
2022/11/03 09:52:56;;;;;;;18.35;5.60;;;;;;;;;;5010403;28;20124;-66
2022/11/03 09:55:26;;;;;;;19.67;6.07;;;;;;;;;;5004640;28;20191;-67
2022/11/03 09:57:54;;;;;;;20.17;4.93;;;;;;;;;;4999628;28;20152;-56
2022/11/03 10:00:21;;;;;;;16.52;5.05;;;;;;;;;;5005969;28;20096;-57
2022/11/03 10:02:47;;;;;;;20.88;4.88;;;;;;;;;;5007387;28;20049;-57
2022/11/03 10:05:17;;;;;;;18.23;5.45;;;;;;;;;;5003819;28;20129;-56
2022/11/03 10:07:44;;;;;;;18.08;6.30;;;;;;;;;;5005754;28;20128;-57
2022/11/03 10:10:16;;;;;;;13.48;4.45;;;;;;;;;;5005346;28;20064;-55
2022/11/03 10:12:42;;;;;;;20.45;5.40;;;;;;;;;;5002420;28;20125;-60
2022/11/03 10:15:16;;;;;;;15.40;4.97;;;;;;;;;;5007591;28;20365;-61
2022/11/03 10:17:43;;;;;;;13.95;4.90;;;;;;;;;;5007211;28;20053;-60
2022/11/03 10:20:11;;;;;;;13.90;4.53;;;;;;;;;;5001235;28;20069;-60
2022/11/03 10:22:36;;;;;;;12.77;4.28;;;;;;;;;;5006299;28;20483;-61
2022/11/03 10:25:28;;;;;;;13.52;4.13;;;;;;;;;;4995715;28;20130;-61
2022/11/03 10:28:22;;;;;;;13.65;4.68;;;;;;;;;;4992277;28;20472;-66
2022/11/03 10:30:50;;;;;;;12.23;4.55;;;;;;;;;;4997171;28;20042;-54
2022/11/03 10:33:37;;;;;;;14.00;4.38;;;;;;;;;;4994839;28;20033;-56
2022/11/03 10:36:15;;;;;;;10.50;4.13;;;;;;;;;;4985911;28;20813;-61
2022/11/03 10:38:42;;;;;;;19.05;4.15;;;;;;;;;;4999584;28;20042;-61
2022/11/03 10:41:12;;;;;;;12.02;4.45;;;;;;;;;;4996446;28;20556;-63
2022/11/03 10:43:42;;;;;;;12.77;4.45;;;;;;;;;;4997742;28;20228;-63
2022/11/03 10:46:21;;;;;;;14.48;4.82;;;;;;;;;;4989909;28;20047;-62
2022/11/03 10:49:10;;;;;;;12.88;4.45;;;;;;;;;;4991122;28;20742;-61
2022/11/03 10:51:37;;;;;;;12.15;4.15;;;;;;;;;;4995895;28;20045;-61
2022/11/03 10:54:04;;;;;;;15.70;4.20;;;;;;;;;;5001677;28;20167;-62
2022/11/03 10:56:34;;;;;;;14.23;4.40;;;;;;;;;;4984268;28;20058;-64
2022/11/03 10:59:00;;;;;;;13.52;4.55;;;;;;;;;;4989413;28;20413;-65
2022/11/03 11:01:26;;;;;;;13.27;3.97;;;;;;;;;;4996728;28;20040;-64
2022/11/03 11:03:52;;;;;;;11.27;4.40;;;;;;;;;;4993925;28;20433;-65
2022/11/03 11:06:30;;;;;;;13.07;4.68;;;;;;;;;;4990873;28;20042;-62
2022/11/03 11:09:04;;;;;;;13.25;4.47;;;;;;;;;;4991751;28;20049;-64
2022/11/03 11:11:30;;;;;;;11.73;4.13;;;;;;;;;;4993005;28;20066;-61
2022/11/03 11:14:33;;;;;;;9.00;3.80;;;;;;;;;;4995156;28;20190;-61
2022/11/03 11:17:00;;;;;;;16.48;3.88;;;;;;;;;;4994540;28;20785;-63
2022/11/03 11:19:27;;;;;;;10.13;3.60;;;;;;;;;;4997233;28;20034;-62
2022/11/03 11:21:52;;;;;;;12.38;4.03;;;;;;;;;;4997917;28;20448;-63
2022/11/03 11:24:43;;;;;;;11.40;4.50;;;;;;;;;;4996941;28;20069;-62
2022/11/03 11:27:33;;;;;;;9.88;4.03;;;;;;;;;;4998288;28;20081;-63
2022/11/03 11:29:59;;;;;;;10.98;3.58;;;;;;;;;;5004711;28;20054;-63
2022/11/03 11:32:55;;;;;;;11.90;3.80;;;;;;;;;;4997267;28;20054;-63
2022/11/03 11:35:23;;;;;;;16.75;4.50;;;;;;;;;;4998705;28;20076;-63
2022/11/03 11:37:49;;;;;;;11.85;4.28;;;;;;;;;;4997792;28;20161;-64
2022/11/03 11:40:24;;;;;;;9.15;4.28;;;;;;;;;;4994026;28;20136;-63
2022/11/03 11:43:01;;;;;;;16.00;5.25;;;;;;;;;;4997716;28;20060;-63
2022/11/03 11:46:04;;;;;;;12.32;4.57;;;;;;;;;;4999102;28;20136;-62
2022/11/03 11:48:30;;;;;;;10.37;3.73;;;;;;;;;;5000256;28;20421;-61
2022/11/03 11:51:00;;;;;;;10.25;4.28;;;;;;;;;;5001866;28;20053;-62
2022/11/03 11:53:27;;;;;;;13.50;3.97;;;;;;;;;;4994807;28;20137;-62
2022/11/03 11:55:57;;;;;;;12.63;4.18;;;;;;;;;;5002612;28;20037;-60
2022/11/03 11:58:44;;;;;;;11.85;4.93;;;;;;;;;;4998738;28;20057;-61
2022/11/03 12:01:28;;;;;;;10.98;3.90;;;;;;;;;;4994525;28;20076;-55
2022/11/03 12:03:55;;;;;;;12.35;4.18;;;;;;;;;;4995981;28;20527;-54
2022/11/03 12:06:35;;;;;;;11.10;4.05;;;;;;;;;;4994892;28;20578;-60
2022/11/03 12:09:07;;;;;;;10.35;4.22;;;;;;;;;;5003715;28;20061;-61
2022/11/03 12:11:45;;;;;;;13.38;4.93;;;;;;;;;;4996224;28;20046;-59
2022/11/03 12:14:25;;;;;;;12.13;4.22;;;;;;;;;;4996547;28;21298;-60
2022/11/03 12:16:52;;;;;;;21.00;4.40;;;;;;;;;;4996114;28;20496;-60
2022/11/03 12:19:40;;;;;;;12.70;4.70;;;;;;;;;;4998579;28;20136;-60
2022/11/03 12:22:28;;;;;;;15.23;4.85;;;;;;;;;;4993855;28;20060;-60
2022/11/03 12:24:54;;;;;;;14.65;4.38;;;;;;;;;;5002813;28;20441;-60
2022/11/03 12:27:25;;;;;;;11.45;4.40;;;;;;;;;;4997324;28;20055;-60
2022/11/03 12:29:58;;;;;;;13.77;4.70;;;;;;;;;;4996815;28;20046;-61
2022/11/03 12:32:24;;;;;;;12.13;4.43;;;;;;;;;;4996918;28;20051;-59
2022/11/03 12:34:50;;;;;;;13.20;4.07;;;;;;;;;;4996750;28;20065;-61
2022/11/03 12:37:15;;;;;;;13.88;4.82;;;;;;;;;;4998122;28;20054;-60
2022/11/03 12:39:40;;;;;;;10.23;3.80;;;;;;;;;;4998714;28;20067;-59
2022/11/03 12:42:06;;;;;;;12.85;4.00;;;;;;;;;;4991114;28;20050;-58
2022/11/03 12:44:32;;;;;;;11.52;4.35;;;;;;;;;;4991328;28;20046;-60
2022/11/03 12:46:58;;;;;;;12.05;4.00;;;;;;;;;;4997470;28;21393;-60
2022/11/03 12:49:24;;;;;;;10.73;3.92;;;;;;;;;;4991244;28;20409;-61
2022/11/03 12:51:49;;;;;;;10.95;4.65;;;;;;;;;;4998025;28;20605;-60
2022/11/03 12:54:14;;;;;;;10.63;4.15;;;;;;;;;;4994890;28;20450;-61
2022/11/03 12:56:40;;;;;;;10.98;4.45;;;;;;;;;;4991205;28;20136;-61
2022/11/03 12:59:06;;;;;;;12.75;4.20;;;;;;;;;;5000692;28;20064;-66
2022/11/03 13:01:32;;;;;;;19.35;4.10;;;;;;;;;;4994732;28;21346;-60
2022/11/03 13:03:58;;;;;;;16.15;4.47;;;;;;;;;;4991561;28;20054;-59
2022/11/03 13:06:23;;;;;;;14.05;4.68;;;;;;;;;;4994285;28;20038;-61
2022/11/03 13:08:49;;;;;;;13.60;4.82;;;;;;;;;;5001667;28;20660;-62
2022/11/03 13:13:59;;;;;;;9.15;4.40;;;;;;;;;;4995171;28;20094;-60
2022/11/03 13:16:24;;;;;;;10.35;4.28;;;;;;;;;;4997145;28;20876;-60
2022/11/03 13:18:50;;;;;;;11.90;4.30;;;;;;;;;;5004534;28;20053;-61
2022/11/03 13:21:15;;;;;;;14.82;4.32;;;;;;;;;;4995273;28;20064;-60
2022/11/03 13:23:41;;;;;;;11.60;4.10;;;;;;;;;;4996107;28;20049;-61
2022/11/03 13:26:07;;;;;;;13.85;4.47;;;;;;;;;;4997677;28;20038;-61
2022/11/03 13:28:32;;;;;;;9.43;4.28;;;;;;;;;;4993220;28;21392;-60
2022/11/03 13:30:57;;;;;;;10.82;3.95;;;;;;;;;;4995060;28;20196;-62
2022/11/03 13:33:23;;;;;;;14.02;3.75;;;;;;;;;;4998467;28;20065;-61
2022/11/03 13:35:48;;;;;;;13.70;4.40;;;;;;;;;;5002462;28;20412;-63
2022/11/03 13:38:13;;;;;;;11.80;4.10;;;;;;;;;;4996954;28;20452;-62
2022/11/03 13:40:39;;;;;;;11.25;4.65;;;;;;;;;;4991246;28;20125;-63
2022/11/03 13:43:04;;;;;;;16.30;5.82;;;;;;;;;;4999747;28;20743;-61
2022/11/03 13:45:30;;;;;;;20.23;4.65;;;;;;;;;;5000647;28;20078;-61
2022/11/03 13:47:56;;;;;;;16.05;3.90;;;;;;;;;;4993026;28;20046;-61
2022/11/03 13:50:22;;;;;;;14.98;3.90;;;;;;;;;;4996992;28;20059;-61
2022/11/03 13:52:48;;;;;;;11.90;4.47;;;;;;;;;;4999041;28;20046;-61
2022/11/03 13:55:13;;;;;;;15.30;3.95;;;;;;;;;;4998513;28;20505;-61
2022/11/03 13:57:39;;;;;;;17.55;4.15;;;;;;;;;;4998345;28;20550;-62
2022/11/03 14:00:05;;;;;;;22.00;4.75;;;;;;;;;;4995744;28;20059;-61
2022/11/03 14:02:31;;;;;;;13.73;4.53;;;;;;;;;;5000046;28;20075;-61
2022/11/03 14:04:56;;;;;;;13.18;4.75;;;;;;;;;;4991845;28;20490;-61
2022/11/03 14:07:22;;;;;;;15.40;4.80;;;;;;;;;;4999033;28;20046;-61
2022/11/03 14:09:47;;;;;;;11.65;4.43;;;;;;;;;;4992335;28;20052;-61
2022/11/03 14:12:35;;;;;;;14.60;4.43;;;;;;;;;;4990111;28;20045;-61
2022/11/03 14:15:08;;;;;;;14.27;4.13;;;;;;;;;;4993969;28;20607;-61
2022/11/03 14:17:33;;;;;;;18.67;4.57;;;;;;;;;;4996130;28;20060;-62
2022/11/03 14:19:59;;;;;;;17.00;5.10;;;;;;;;;;4998970;28;20037;-62
2022/11/03 14:22:25;;;;;;;21.17;5.13;;;;;;;;;;4998629;28;20030;-67
2022/11/03 14:24:50;;;;;;;20.05;5.82;;;;;;;;;;4997916;28;20259;-65
2022/11/03 14:27:17;;;;;;;14.50;4.47;;;;;;;;;;4994023;28;20431;-61
2022/11/03 14:29:43;;;;;;;11.60;4.10;;;;;;;;;;4987793;28;20056;-61
2022/11/03 14:32:09;;;;;;;10.05;3.85;;;;;;;;;;5002041;28;20091;-61
2022/11/03 14:34:35;;;;;;;15.30;4.20;;;;;;;;;;4992607;28;20042;-61
2022/11/03 14:37:01;;;;;;;11.93;3.58;;;;;;;;;;4993966;28;20068;-62
2022/11/03 14:39:27;;;;;;;11.82;3.90;;;;;;;;;;5002082;28;20497;-62
2022/11/03 14:42:04;;;;;;;17.38;4.30;;;;;;;;;;4992733;28;20053;-60
2022/11/03 14:44:35;;;;;;;10.55;3.85;;;;;;;;;;4998128;28;20084;-60
2022/11/03 14:47:01;;;;;;;23.35;7.97;;;;;;;;;;4998393;28;20034;-61
2022/11/03 14:49:31;;;;;;;10.45;4.38;;;;;;;;;;5007605;28;20445;-61
2022/11/03 14:51:58;;;;;;;11.45;3.75;;;;;;;;;;5005089;28;20052;-60
2022/11/03 14:54:24;;;;;;;11.43;3.65;;;;;;;;;;4996728;28;20049;-61
2022/11/03 14:56:49;;;;;;;13.95;3.55;;;;;;;;;;5003657;28;20049;-61
2022/11/03 14:59:15;;;;;;;10.02;3.72;;;;;;;;;;5007616;28;20030;-60
2022/11/03 15:01:41;;;;;;;13.32;4.20;;;;;;;;;;5005475;28;20045;-60
2022/11/03 15:04:10;;;;;;;13.43;3.90;;;;;;;;;;5003557;28;20069;-61
2022/11/03 15:06:36;;;;;;;13.85;4.47;;;;;;;;;;5003454;28;20058;-61
2022/11/03 15:09:02;;;;;;;9.63;3.42;;;;;;;;;;5003855;28;20104;-64